createdAt,value
2023-05-06T00:00:12.969Z,101177.63
2023-05-06T00:03:04.086Z,101171.75
2023-05-06T00:05:34.308Z,101169.69
2023-05-06T00:08:03.279Z,101170.66
2023-05-06T00:10:32.047Z,101167.59
2023-05-06T00:13:01.088Z,101162.47
2023-05-06T00:15:31.968Z,101154.06
2023-05-06T00:18:02.471Z,101160.09
2023-05-06T00:20:31.399Z,101162.03
2023-05-06T00:23:01.899Z,101153.81
2023-05-06T00:25:30.566Z,101158.47
2023-05-06T00:27:59.525Z,101157.69
2023-05-06T00:30:28.653Z,101161.66
2023-05-06T00:32:57.582Z,101165.22
2023-05-06T00:35:26.430Z,101167.25
2023-05-06T00:37:59.736Z,101166.38
2023-05-06T00:40:29.869Z,101173.66
2023-05-06T00:42:58.850Z,101171.09
2023-05-06T00:45:27.794Z,101176.41
2023-05-06T00:47:58.054Z,101175.56
2023-05-06T00:50:29.827Z,101172.00
2023-05-06T00:53:01.192Z,101171.97
2023-05-06T00:55:32.569Z,101164.34
2023-05-06T00:58:02.103Z,101170.25
2023-05-06T01:00:31.001Z,101165.75
2023-05-06T01:03:00.355Z,101178.28
2023-05-06T01:05:41.480Z,101176.59
2023-05-06T01:08:22.548Z,101175.25
2023-05-06T01:10:58.301Z,101184.09
2023-05-06T01:13:37.611Z,101189.78
2023-05-06T01:16:11.541Z,101183.75
2023-05-06T01:18:42.189Z,101187.34
2023-05-06T01:21:12.709Z,101188.59
2023-05-06T01:23:55.217Z,101182.38
2023-05-06T01:26:24.098Z,101192.25
2023-05-06T01:28:53.326Z,101193.41
2023-05-06T01:31:27.918Z,101195.97
2023-05-06T01:34:11.438Z,101200.41
2023-05-06T01:36:50.754Z,101191.97
2023-05-06T01:39:27.375Z,101195.06
2023-05-06T01:42:00.133Z,101196.06
2023-05-06T01:44:34.721Z,101190.97
2023-05-06T01:47:05.070Z,101194.56
2023-05-06T01:49:37.056Z,101202.38
2023-05-06T01:52:06.053Z,101197.34
2023-05-06T01:54:36.331Z,101196.44
2023-05-06T01:57:05.101Z,101199.19
2023-05-06T01:59:34.559Z,101189.78
2023-05-06T02:02:03.236Z,101190.41
2023-05-06T02:04:33.114Z,101189.34
2023-05-06T02:07:02.053Z,101186.06
2023-05-06T02:09:30.933Z,101181.69
2023-05-06T02:12:04.913Z,101185.31
2023-05-06T02:14:33.896Z,101183.59
2023-05-06T02:17:05.820Z,101180.06
2023-05-06T02:19:35.737Z,101181.06
2023-05-06T02:22:04.401Z,101181.06
2023-05-06T02:24:33.450Z,101182.97
2023-05-06T02:27:02.358Z,101180.34
2023-05-06T02:29:33.248Z,101176.44
2023-05-06T02:32:02.049Z,101175.41
2023-05-06T02:34:31.003Z,101170.09
2023-05-06T02:37:00.042Z,101166.59
2023-05-06T02:39:28.993Z,101155.19
2023-05-06T02:41:57.621Z,101157.03
2023-05-06T02:44:26.631Z,101151.03
2023-05-06T02:46:56.675Z,101158.25
2023-05-06T02:49:25.625Z,101155.00
2023-05-06T02:51:54.344Z,101150.53
2023-05-06T02:54:23.296Z,101150.53
2023-05-06T02:56:52.001Z,101154.38
2023-05-06T02:59:21.109Z,101153.88
2023-05-06T03:01:49.771Z,101154.84
2023-05-06T03:04:20.118Z,101161.38
2023-05-06T03:06:48.878Z,101160.41
2023-05-06T03:09:17.948Z,101167.47
2023-05-06T03:11:47.789Z,101169.88
2023-05-06T03:14:17.134Z,101169.88
2023-05-06T03:16:45.953Z,101170.66
2023-05-06T03:19:14.954Z,101173.00
2023-05-06T03:21:47.288Z,101178.09
2023-05-06T03:24:17.638Z,101178.88
2023-05-06T03:26:47.033Z,101185.59
2023-05-06T03:29:16.361Z,101189.25
2023-05-06T03:31:50.332Z,101178.59
2023-05-06T03:34:20.261Z,101180.28
2023-05-06T03:36:50.586Z,101173.50
2023-05-06T03:39:19.529Z,101188.03
2023-05-06T03:41:48.356Z,101193.19
2023-05-06T03:44:17.715Z,101193.13
2023-05-06T03:46:46.758Z,101190.44
2023-05-06T03:49:16.022Z,101191.22
2023-05-06T03:51:47.568Z,101193.84
2023-05-06T03:54:18.652Z,101196.53
2023-05-06T03:56:48.498Z,101193.63
2023-05-06T03:59:18.186Z,101190.84
2023-05-06T04:01:47.502Z,101195.25
2023-05-06T04:04:17.893Z,101194.25
2023-05-06T04:06:46.669Z,101187.03
2023-05-06T04:09:15.682Z,101190.56
2023-05-06T04:11:45.744Z,101189.22
2023-05-06T04:14:17.747Z,101181.06
2023-05-06T04:16:46.910Z,101177.56
2023-05-06T04:19:17.542Z,101173.28
2023-05-06T04:21:46.706Z,101175.91
2023-05-06T04:24:16.935Z,101184.41
2023-05-06T04:26:47.274Z,101167.63
2023-05-06T04:29:17.285Z,101172.19
2023-05-06T04:31:56.539Z,101172.97
2023-05-06T04:34:27.851Z,101176.44
2023-05-06T04:37:00.446Z,101173.72
2023-05-06T04:39:39.359Z,101179.22
2023-05-06T04:42:10.659Z,101168.66
2023-05-06T04:44:47.459Z,101175.44
2023-05-06T04:47:16.350Z,101182.22
2023-05-06T04:49:49.232Z,101181.31
2023-05-06T04:52:18.471Z,101178.69
2023-05-06T04:54:47.456Z,101175.78
2023-05-06T04:57:17.647Z,101172.22
2023-05-06T04:59:47.393Z,101168.81
2023-05-06T05:02:16.288Z,101171.09
2023-05-06T05:04:46.121Z,101159.72
2023-05-06T05:07:14.917Z,101164.06
2023-05-06T05:09:44.026Z,101175.88
2023-05-06T05:12:13.505Z,101169.47
2023-05-06T05:14:48.457Z,101165.44
2023-05-06T05:17:17.233Z,101164.97
2023-05-06T05:19:48.252Z,101165.78
2023-05-06T05:22:18.072Z,101167.94
2023-05-06T05:24:47.216Z,101162.59
2023-05-06T05:27:15.925Z,101158.19
2023-05-06T05:29:45.015Z,101161.69
2023-05-06T05:32:16.173Z,101166.69
2023-05-06T05:34:45.243Z,101164.59
2023-05-06T05:37:14.314Z,101156.72
2023-05-06T05:39:43.267Z,101163.06
2023-05-06T05:42:13.289Z,101153.03
2023-05-06T05:44:45.081Z,101155.09
2023-05-06T05:47:16.044Z,101158.66
2023-05-06T05:49:45.701Z,101155.56
2023-05-06T05:52:14.814Z,101152.31
2023-05-06T05:54:44.649Z,101147.53
2023-05-06T05:57:13.858Z,101141.03
2023-05-06T05:59:43.640Z,101149.13
2023-05-06T06:02:12.335Z,101135.56
2023-05-06T06:04:42.674Z,101134.75
2023-05-06T06:07:11.697Z,101133.72
2023-05-06T06:09:46.711Z,101139.84
2023-05-06T06:12:18.125Z,101137.75
2023-05-06T06:14:48.543Z,101135.00
2023-05-06T06:17:20.433Z,101140.38
2023-05-06T06:19:57.120Z,101140.38
2023-05-06T06:22:26.499Z,101146.31
2023-05-06T06:24:57.399Z,101147.72
2023-05-06T06:27:26.172Z,101147.06
2023-05-06T06:29:55.145Z,101149.44
2023-05-06T06:32:23.843Z,101145.78
2023-05-06T06:34:55.687Z,101149.25
2023-05-06T06:37:25.281Z,101139.50
2023-05-06T06:39:54.281Z,101137.94
2023-05-06T06:42:22.983Z,101147.38
2023-05-06T06:45:02.226Z,101138.63
2023-05-06T06:47:31.069Z,101136.84
2023-05-06T06:50:01.439Z,101136.94
2023-05-06T06:52:30.140Z,101142.13
2023-05-06T06:54:59.310Z,101135.56
2023-05-06T06:57:28.155Z,101129.72
2023-05-06T06:59:57.114Z,101136.56
2023-05-06T07:02:25.936Z,101137.06
2023-05-06T07:04:55.291Z,101127.19
2023-05-06T07:07:25.361Z,101127.53
2023-05-06T07:09:54.281Z,101122.72
2023-05-06T07:12:24.468Z,101113.50
2023-05-06T07:14:53.447Z,101112.41
2023-05-06T07:17:22.209Z,101107.31
2023-05-06T07:19:51.238Z,101112.47
2023-05-06T07:22:20.363Z,101111.47
2023-05-06T07:24:50.655Z,101100.09
2023-05-06T07:27:19.374Z,101101.69
2023-05-06T07:29:48.313Z,101100.53
2023-05-06T07:32:16.996Z,101098.59
2023-05-06T07:34:46.079Z,101094.44
2023-05-06T07:37:14.712Z,101097.34
2023-05-06T07:39:43.700Z,101103.28
2023-05-06T07:42:13.710Z,101097.34
2023-05-06T07:44:42.679Z,101088.31
2023-05-06T07:47:11.581Z,101099.16
2023-05-06T07:49:40.556Z,101098.19
2023-05-06T07:52:09.248Z,101094.88
2023-05-06T07:54:38.242Z,101095.47
2023-05-06T07:57:06.912Z,101101.41
2023-05-06T07:59:37.246Z,101094.41
2023-05-06T08:02:06.125Z,101101.03
2023-05-06T08:04:35.294Z,101100.16
2023-05-06T08:07:04.045Z,101098.28
2023-05-06T08:09:33.018Z,101101.31
2023-05-06T08:12:01.700Z,101106.84
2023-05-06T08:14:30.838Z,101103.81
2023-05-06T08:17:00.907Z,101113.72
2023-05-06T08:19:29.908Z,101107.13
2023-05-06T08:21:58.609Z,101111.94
2023-05-06T08:24:27.841Z,101111.84
2023-05-06T08:26:56.469Z,101109.31
2023-05-06T08:29:25.394Z,101115.78
2023-05-06T08:31:54.084Z,101115.03
2023-05-06T08:34:24.418Z,101111.19
2023-05-06T08:36:53.197Z,101103.19
2023-05-06T08:39:22.273Z,101101.75
2023-05-06T08:41:54.149Z,101104.78
2023-05-06T08:44:26.009Z,101102.22
2023-05-06T08:46:55.686Z,101101.69
2023-05-06T08:49:26.848Z,101109.22
2023-05-06T08:51:57.234Z,101105.34
2023-05-06T08:54:27.454Z,101102.09
2023-05-06T08:57:00.479Z,101113.03
2023-05-06T08:59:32.892Z,101110.38
2023-05-06T09:02:02.990Z,101108.34
2023-05-06T09:04:33.522Z,101112.28
2023-05-06T09:07:02.630Z,101107.13
2023-05-06T09:09:31.433Z,101101.09
2023-05-06T09:12:02.839Z,101105.44
2023-05-06T09:14:31.699Z,101089.50
2023-05-06T09:17:00.668Z,101098.66
2023-05-06T09:19:29.465Z,101092.44
2023-05-06T09:22:00.046Z,101104.94
2023-05-06T09:24:29.023Z,101102.00
2023-05-06T09:26:57.971Z,101100.78
2023-05-06T09:29:26.832Z,101109.56
2023-05-06T09:31:56.460Z,101103.13
2023-05-06T09:34:25.274Z,101102.00
2023-05-06T09:36:57.180Z,101099.16
2023-05-06T09:39:28.623Z,101105.38
2023-05-06T09:41:58.159Z,101089.00
2023-05-06T09:44:28.284Z,101091.19
2023-05-06T09:46:57.477Z,101090.53
2023-05-06T09:49:27.448Z,101091.78
2023-05-06T09:51:57.732Z,101081.41
2023-05-06T09:54:28.821Z,101076.31
2023-05-06T09:57:00.871Z,101079.06
2023-05-06T09:59:31.166Z,101070.03
2023-05-06T10:02:01.207Z,101064.94
2023-05-06T10:04:34.634Z,101062.13
2023-05-06T10:07:05.195Z,101064.94
2023-05-06T10:09:37.890Z,101069.91
2023-05-06T10:12:09.377Z,101066.97
2023-05-06T10:14:38.860Z,101067.81
2023-05-06T10:17:10.716Z,101067.44
2023-05-06T10:19:43.569Z,101060.81
2023-05-06T10:22:23.507Z,101070.56
2023-05-06T10:25:05.629Z,101067.47
2023-05-06T10:27:41.744Z,101059.03
2023-05-06T10:30:12.612Z,101055.34
2023-05-06T10:32:45.590Z,101050.16
2023-05-06T10:35:28.732Z,101049.44
2023-05-06T10:37:58.809Z,101046.88
2023-05-06T10:40:29.136Z,101036.13
2023-05-06T10:43:26.909Z,101038.44
2023-05-06T10:46:09.203Z,101033.81
2023-05-06T10:48:40.508Z,101025.34
2023-05-06T10:51:29.173Z,101021.03
2023-05-06T10:54:04.172Z,101023.16
2023-05-06T10:56:37.574Z,101011.53
2023-05-06T10:59:09.298Z,101011.22
2023-05-06T11:01:40.790Z,101005.00
2023-05-06T11:04:12.856Z,101002.56
2023-05-06T11:06:44.669Z,101012.59
2023-05-06T11:09:19.323Z,101011.72
2023-05-06T11:11:53.229Z,101006.78
2023-05-06T11:14:30.652Z,101010.34
2023-05-06T11:17:01.653Z,101006.13
2023-05-06T11:19:32.812Z,101004.41
2023-05-06T11:22:04.016Z,101019.16
2023-05-06T11:24:42.471Z,101015.16
2023-05-06T11:27:12.847Z,101017.03
2023-05-06T11:29:45.432Z,101021.22
2023-05-06T11:32:26.279Z,101023.88
2023-05-06T11:34:57.484Z,101019.38
2023-05-06T11:37:28.243Z,101016.47
2023-05-06T11:39:57.335Z,101008.09
2023-05-06T11:42:29.354Z,101011.94
2023-05-06T11:45:02.511Z,101022.16
2023-05-06T11:47:32.771Z,101015.84
2023-05-06T11:50:07.538Z,101021.50
2023-05-06T11:52:37.256Z,101018.56
2023-05-06T11:55:10.988Z,101011.06
2023-05-06T11:57:46.904Z,101022.50
2023-05-06T12:00:18.762Z,101025.97
2023-05-06T12:02:47.585Z,101034.56
2023-05-06T12:05:16.754Z,101033.16
2023-05-06T12:07:46.581Z,101032.19
2023-05-06T12:10:17.261Z,101029.59
2023-05-06T12:12:47.789Z,101032.34
2023-05-06T12:15:17.412Z,101032.19
2023-05-06T12:17:46.356Z,101030.00
2023-05-06T12:20:16.073Z,101038.81
2023-05-06T12:22:44.845Z,101026.19
2023-05-06T12:25:17.865Z,101033.66
2023-05-06T12:27:47.921Z,101028.06
2023-05-06T12:30:17.119Z,101037.06
2023-05-06T12:32:58.693Z,101036.09
2023-05-06T12:35:29.066Z,101038.72
2023-05-06T12:37:58.314Z,101030.94
2023-05-06T12:40:27.256Z,101036.78
2023-05-06T12:42:57.747Z,101034.75
2023-05-06T12:45:27.630Z,101037.38
2023-05-06T12:47:59.274Z,101028.91
2023-05-06T12:50:36.804Z,101024.00
2023-05-06T12:53:07.234Z,101021.84
2023-05-06T12:55:38.326Z,101021.72
2023-05-06T12:58:21.579Z,101014.44
2023-05-06T13:00:50.625Z,101014.16
2023-05-06T13:03:20.195Z,101013.16
2023-05-06T13:05:50.417Z,101007.41
2023-05-06T13:08:19.201Z,101008.66
2023-05-06T13:10:48.269Z,100998.56
2023-05-06T13:13:18.441Z,100996.09
2023-05-06T13:15:47.606Z,101001.03
2023-05-06T13:18:16.301Z,100994.03
2023-05-06T13:20:46.002Z,100993.31
2023-05-06T13:23:15.039Z,100981.84
2023-05-06T13:25:56.366Z,100972.19
2023-05-06T13:28:36.722Z,100965.41
2023-05-06T13:31:06.249Z,100965.19
2023-05-06T13:33:36.491Z,100960.16
2023-05-06T13:36:06.428Z,100957.00
2023-05-06T13:38:35.235Z,100943.19
2023-05-06T13:41:04.242Z,100941.25
2023-05-06T13:43:34.363Z,100938.09
2023-05-06T13:46:03.904Z,100939.25
2023-05-06T13:48:32.705Z,100946.41
2023-05-06T13:51:01.734Z,100941.72
2023-05-06T13:53:30.369Z,100935.78
2023-05-06T13:55:59.253Z,100930.06
2023-05-06T13:58:27.935Z,100931.66
2023-05-06T14:00:58.275Z,100930.69
2023-05-06T14:03:27.277Z,100920.28
2023-05-06T14:05:56.327Z,100920.34
2023-05-06T14:08:25.046Z,100918.50
2023-05-06T14:10:54.050Z,100925.38
2023-05-06T14:13:22.841Z,100919.28
2023-05-06T14:15:51.939Z,100928.06
2023-05-06T14:18:22.830Z,100917.38
2023-05-06T14:20:52.711Z,100908.34
2023-05-06T14:23:21.451Z,100905.72
2023-05-06T14:25:50.549Z,100907.66
2023-05-06T14:28:19.553Z,100905.09
2023-05-06T14:30:48.617Z,100899.38
2023-05-06T14:33:17.334Z,100904.41
2023-05-06T14:35:48.436Z,100901.09
2023-05-06T14:38:18.751Z,100903.72
2023-05-06T14:40:47.743Z,100899.09
2023-05-06T14:43:16.405Z,100906.72
2023-05-06T14:45:45.418Z,100915.38
2023-05-06T14:48:14.196Z,100911.50
2023-05-06T14:50:43.146Z,100918.53
2023-05-06T14:53:13.287Z,100909.44
2023-05-06T14:55:42.356Z,100922.06
2023-05-06T14:58:11.021Z,100924.63
2023-05-06T15:00:39.952Z,100916.69
2023-05-06T15:03:08.685Z,100914.06
2023-05-06T15:05:37.998Z,100922.91
2023-05-06T15:08:07.401Z,100922.00
2023-05-06T15:10:37.986Z,100914.06
2023-05-06T15:13:06.992Z,100925.44
2023-05-06T15:15:36.078Z,100928.28
2023-05-06T15:18:05.078Z,100929.38
2023-05-06T15:20:34.134Z,100938.09
2023-05-06T15:23:02.763Z,100937.31
2023-05-06T15:25:36.013Z,100945.94
2023-05-06T15:28:07.155Z,100942.63
2023-05-06T15:30:38.289Z,100945.88
2023-05-06T15:33:07.215Z,100935.94
2023-05-06T15:35:36.244Z,100941.03
2023-05-06T15:38:05.680Z,100937.94
2023-05-06T15:40:34.813Z,100939.66
2023-05-06T15:43:05.432Z,100940.88
2023-05-06T15:45:36.195Z,100952.41
2023-05-06T15:48:05.208Z,100948.41
2023-05-06T15:50:34.477Z,100946.69
2023-05-06T15:53:04.044Z,100953.78
2023-05-06T15:55:42.355Z,100945.09
2023-05-06T15:58:14.046Z,100948.56
2023-05-06T16:00:44.505Z,100951.47
2023-05-06T16:03:13.623Z,100957.25
2023-05-06T16:05:42.840Z,100968.25
2023-05-06T16:08:11.580Z,100978.53
2023-05-06T16:10:40.748Z,100974.97
2023-05-06T16:13:09.433Z,100982.81
2023-05-06T16:15:38.543Z,100983.84
2023-05-06T16:18:08.640Z,100989.13
2023-05-06T16:20:37.838Z,100981.97
2023-05-06T16:23:06.827Z,100989.97
2023-05-06T16:25:37.811Z,100994.09
2023-05-06T16:28:07.168Z,100996.78
2023-05-06T16:30:36.407Z,101000.03
2023-05-06T16:33:06.061Z,101002.81
2023-05-06T16:35:36.502Z,101006.97
2023-05-06T16:38:05.177Z,101008.81
2023-05-06T16:40:41.150Z,101011.22
2023-05-06T16:43:10.113Z,101010.66
2023-05-06T16:45:39.733Z,101003.72
2023-05-06T16:48:08.582Z,101001.78
2023-05-06T16:50:38.914Z,101006.97
2023-05-06T16:53:08.217Z,101002.03
2023-05-06T16:55:37.543Z,101002.44
2023-05-06T16:58:06.413Z,101005.00
2023-05-06T17:00:35.527Z,100999.75
2023-05-06T17:03:04.657Z,101003.53
2023-05-06T17:05:33.794Z,101004.50
2023-05-06T17:08:04.476Z,101007.06
2023-05-06T17:10:33.525Z,101004.44
2023-05-06T17:13:02.427Z,100999.31
2023-05-06T17:15:31.375Z,101001.03
2023-05-06T17:18:00.027Z,101002.03
2023-05-06T17:20:29.279Z,100993.53
2023-05-06T17:22:57.960Z,100993.59
2023-05-06T17:25:28.198Z,101000.44
2023-05-06T17:27:56.892Z,100992.09
2023-05-06T17:30:26.094Z,100992.47
2023-05-06T17:32:56.201Z,100995.22
2023-05-06T17:35:26.177Z,100990.75
2023-05-06T17:37:55.113Z,100993.09
2023-05-06T17:40:24.484Z,100998.13
2023-05-06T17:42:54.565Z,100990.69
2023-05-06T17:45:25.348Z,100996.91
2023-05-06T17:47:54.191Z,101003.25
2023-05-06T17:50:23.587Z,101006.88
2023-05-06T17:52:52.977Z,101000.72
2023-05-06T17:55:22.734Z,101009.44
2023-05-06T17:57:52.568Z,101007.41
2023-05-06T18:00:23.411Z,101013.66
2023-05-06T18:02:52.472Z,101016.41
2023-05-06T18:05:21.827Z,101012.97
2023-05-06T18:07:50.523Z,101010.41
2023-05-06T18:10:20.520Z,101025.91
2023-05-06T18:12:49.407Z,101016.72
2023-05-06T18:15:18.444Z,101011.53
2023-05-06T18:17:48.484Z,101013.31
2023-05-06T18:20:17.766Z,101021.94
2023-05-06T18:22:46.448Z,101019.97
2023-05-06T18:25:15.494Z,101028.75
2023-05-06T18:27:44.241Z,101021.75
2023-05-06T18:30:14.177Z,101030.72
2023-05-06T18:32:42.840Z,101033.56
2023-05-06T18:35:13.524Z,101033.69
2023-05-06T18:37:42.387Z,101034.59
2023-05-06T18:40:12.813Z,101037.16
2023-05-06T18:42:41.646Z,101035.25
2023-05-06T18:45:12.101Z,101039.63
2023-05-06T18:47:41.149Z,101031.13
2023-05-06T18:50:12.518Z,101039.88
2023-05-06T18:52:41.382Z,101033.75
2023-05-06T18:55:11.051Z,101032.97
2023-05-06T18:57:39.882Z,101035.44
2023-05-06T19:00:10.979Z,101037.84
2023-05-06T19:02:39.760Z,101030.28
2023-05-06T19:05:11.298Z,101033.75
2023-05-06T19:07:41.582Z,101034.47
2023-05-06T19:10:11.478Z,101032.97
2023-05-06T19:12:41.615Z,101037.50
2023-05-06T19:15:14.080Z,101035.72
2023-05-06T19:17:42.824Z,101031.38
2023-05-06T19:20:14.402Z,101036.50
2023-05-06T19:22:44.773Z,101027.75
2023-05-06T19:25:14.066Z,101033.09
2023-05-06T19:27:42.755Z,101022.97
2023-05-06T19:30:12.465Z,101027.41
2023-05-06T19:32:41.178Z,101021.13
2023-05-06T19:35:11.125Z,101020.16
2023-05-06T19:37:40.376Z,101018.59
2023-05-06T19:40:12.121Z,101018.00
2023-05-06T19:42:40.846Z,101009.56
2023-05-06T19:45:11.853Z,101016.41
2023-05-06T19:47:40.992Z,101012.06
2023-05-06T19:50:11.242Z,101013.81
2023-05-06T19:52:40.243Z,101013.88
2023-05-06T19:55:12.856Z,101013.81
2023-05-06T19:57:41.755Z,101021.59
2023-05-06T20:00:13.977Z,101016.66
2023-05-06T20:02:42.766Z,101026.13
2023-05-06T20:05:12.385Z,101034.03
2023-05-06T20:07:41.391Z,101031.22
2023-05-06T20:10:13.677Z,101037.22
2023-05-06T20:12:42.779Z,101036.44
2023-05-06T20:15:12.556Z,101033.06
2023-05-06T20:17:41.513Z,101032.34
2023-05-06T20:20:11.690Z,101040.03
2023-05-06T20:22:41.864Z,101034.38
2023-05-06T20:25:16.167Z,101034.16
2023-05-06T20:27:46.405Z,101030.69
2023-05-06T20:30:15.777Z,101036.91
2023-05-06T20:32:44.537Z,101035.16
2023-05-06T20:35:15.152Z,101033.31
2023-05-06T20:37:44.140Z,101034.09
2023-05-06T20:40:15.871Z,101036.00
2023-05-06T20:42:44.544Z,101029.06
2023-05-06T20:45:13.963Z,101030.03
2023-05-06T20:47:42.793Z,101024.69
2023-05-06T20:50:16.906Z,101023.75
2023-05-06T20:52:48.324Z,101010.88
2023-05-06T20:55:20.635Z,101025.41
2023-05-06T20:57:49.915Z,101022.00
2023-05-06T21:00:20.024Z,101021.22
2023-05-06T21:02:48.855Z,101023.69
2023-05-06T21:05:18.059Z,101021.94
2023-05-06T21:07:47.135Z,101032.34
2023-05-06T21:10:16.202Z,101024.56
2023-05-06T21:12:50.860Z,101030.38
2023-05-06T21:15:20.194Z,101030.38
2023-05-06T21:17:49.983Z,101036.56
2023-05-06T21:20:19.525Z,101032.06
2023-05-06T21:22:49.259Z,101040.84
2023-05-06T21:25:18.272Z,101033.91
2023-05-06T21:27:46.934Z,101039.13
2023-05-06T21:30:17.451Z,101030.56
2023-05-06T21:32:46.615Z,101032.25
2023-05-06T21:35:16.371Z,101036.00
2023-05-06T21:37:45.007Z,101036.13
2023-05-06T21:40:14.560Z,101037.75
2023-05-06T21:42:43.235Z,101036.75
2023-05-06T21:45:13.543Z,101037.56
2023-05-06T21:47:43.830Z,101036.44
2023-05-06T21:50:13.639Z,101035.69
2023-05-06T21:52:42.612Z,101034.03
2023-05-06T21:55:11.975Z,101035.88
2023-05-06T21:57:40.827Z,101032.06
2023-05-06T22:00:12.387Z,101038.13
2023-05-06T22:02:42.979Z,101028.91
2023-05-06T22:05:12.330Z,101031.28
2023-05-06T22:07:41.867Z,101025.41
2023-05-06T22:10:11.756Z,101033.19
2023-05-06T22:12:40.654Z,101034.22
2023-05-06T22:15:11.138Z,101031.47
2023-05-06T22:17:40.081Z,101032.34
2023-05-06T22:20:12.055Z,101036.00
2023-05-06T22:22:40.766Z,101044.78
2023-05-06T22:25:11.236Z,101041.34
2023-05-06T22:27:40.351Z,101047.38
2023-05-06T22:30:11.653Z,101035.81
2023-05-06T22:32:40.361Z,101047.03
2023-05-06T22:35:11.393Z,101039.00
2023-05-06T22:37:40.201Z,101042.41
2023-05-06T22:40:11.017Z,101044.88
2023-05-06T22:42:39.806Z,101046.63
2023-05-06T22:45:12.383Z,101039.78
2023-05-06T22:47:41.393Z,101042.53
2023-05-06T22:50:13.114Z,101045.34
2023-05-06T22:52:41.906Z,101039.13
2023-05-06T22:55:11.319Z,101041.81
2023-05-06T22:57:40.288Z,101038.41
2023-05-06T23:00:12.561Z,101036.56
2023-05-06T23:02:41.726Z,101040.03
2023-05-06T23:05:12.651Z,101034.56
2023-05-06T23:07:41.673Z,101026.31
2023-05-06T23:10:11.256Z,101033.91
2023-05-06T23:12:40.202Z,101042.22
2023-05-06T23:15:11.027Z,101032.53
2023-05-06T23:17:39.866Z,101049.00
2023-05-06T23:20:12.803Z,101048.28
2023-05-06T23:22:41.566Z,101053.53
2023-05-06T23:25:12.213Z,101058.63
2023-05-06T23:27:41.628Z,101055.06
2023-05-06T23:30:13.715Z,101056.19
2023-05-06T23:32:42.458Z,101058.88
2023-05-06T23:35:12.953Z,101062.50
2023-05-06T23:37:41.688Z,101064.22
2023-05-06T23:40:13.431Z,101065.41
2023-05-06T23:42:42.056Z,101064.50
2023-05-06T23:45:12.025Z,101067.97
2023-05-06T23:47:41.071Z,101065.28
2023-05-06T23:50:12.200Z,101061.03
2023-05-06T23:52:41.141Z,101049.66
2023-05-06T23:55:10.770Z,101057.03
2023-05-06T23:57:39.585Z,101063.25
